CheckWX is a tool to help pilots better visualize weather data.  It is not intended as a substitute for an official pre-flight weather briefing.

05:52:46 UTC

CYZY METAR
Mackenzie Airport
Mackenzie, Canada
Current

53 mins ago

CYZY 220500Z AUTO 14008KT 9SM FEW070 BKN130 01/M05 A2966 RMK SLP076
Observed
Feb-22 @ 05:00 UTC
Wind
  • 140° at 8 KTS
Visibility
9 SM
Flight Rules
VFR
Cloud Levels
  • Few at 7,000' AGL
  • Broken at 13,000' AGL
Temperature
C / 34°F
Dewpoint
-5°C / 23°F
Humidity
65%
Altimeter
29.66" Hg
Pressure
1004.42 hPa
Previous

2 hours ago

CYZY 220400Z AUTO 14007KT 9SM BKN120 01/M03 A2966 RMK SLP076
Observed
Feb-22 @ 04:00 UTC
Wind
  • 140° at 7 KTS
Visibility
9 SM
Flight Rules
VFR
Cloud Levels
  • Broken at 12,000' AGL
Temperature
C / 34°F
Dewpoint
-3°C / 27°F
Humidity
75%
Altimeter
29.66" Hg
Pressure
1004.42 hPa
Previous

3 hours ago

CYZY 220300Z AUTO VRB02KT 9SM OVC100 00/M03 A2966 RMK SLP076
Observed
Feb-22 @ 03:00 UTC
Wind
  • Variable at 2 KTS
Visibility
9 SM
Flight Rules
VFR
Cloud Levels
  • Overcast at 10,000' AGL
Temperature
C / 32°F
Dewpoint
-3°C / 27°F
Humidity
80%
Altimeter
29.66" Hg
Pressure
1004.42 hPa